This is the latest recevied weather packets stored in our database for station/object SR6WVX. If no packets are shown the sender has not sent any weather packets the latest 10 day(s).
| Time | Temp. | Humidity | Pressure | Rain* | Wind** | Luminosity | Snow |
|---|---|---|---|---|---|---|---|
| 1777550759 | 18.89° C | 30% | 1025.5 hPa | 0 mm | - | - | - |
| 1777550458 | 17.78° C | 29% | 1025.7 hPa | 0 mm | - | - | - |
| 1777550158 | 17.78° C | 31% | 1025.7 hPa | 0 mm | - | - | - |
| 1777549858 | 15.56° C | 32% | 1026 hPa | 0 mm | - | - | - |
| 1777549558 | 15.56° C | 30% | 1026.1 hPa | 0 mm | - | - | - |
| 1777549257 | 15.56° C | 31% | 1026.1 hPa | 0 mm | - | - | - |
| 1777548957 | 15.56° C | 31% | 1026.1 hPa | 0 mm | - | - | - |
| 1777548657 | 15.56° C | 30% | 1026 hPa | 0 mm | - | - | - |
| 1777548357 | 16.11° C | 30% | 1026.2 hPa | 0 mm | - | - | - |
| 1777548056 | 16.11° C | 30% | 1026.1 hPa | 0 mm | - | - | - |
| 1777547756 | 17.22° C | 29% | 1026.1 hPa | 0 mm | - | - | - |
| 1777547456 | 17.78° C | 28% | 1026.1 hPa | 0 mm | - | - | - |
| 1777547155 | 18.89° C | 27% | 1026.2 hPa | 0 mm | - | - | - |
| 1777546855 | 17.78° C | 30% | 1026.1 hPa | 0 mm | - | - | - |
| 1777546555 | 17.22° C | 29% | 1026 hPa | 0 mm | - | - | - |
| 1777546255 | 16.11° C | 29% | 1026.2 hPa | 0 mm | - | - | - |
| 1777545954 | 16.11° C | 29% | 1026.1 hPa | 0 mm | - | - | - |
| 1777545654 | 17.22° C | 28% | 1026.2 hPa | 0 mm | - | - | - |
| 1777545354 | 17.78° C | 27% | 1026.4 hPa | 0 mm | - | - | - |
| 1777545054 | 18.33° C | 28% | 1026.2 hPa | 0 mm | - | - | - |
| 1777544753 | 17.78° C | 28% | 1026.5 hPa | 0 mm | - | - | - |
| 1777544453 | 15° C | 31% | 1026.5 hPa | 0 mm | - | - | - |
| 1777544153 | 15° C | 31% | 1026.5 hPa | 0 mm | - | - | - |
| 1777543852 | 14.44° C | 30% | 1026.6 hPa | 0 mm | - | - | - |
| 1777543552 | 15° C | 29% | 1026.6 hPa | 0 mm | - | - | - |
* Rain latest hour (hover to see other rain measurements)
** Current wind speed in m/s (hover to see current wind gust speed)